createdAt,value
2023-04-05T00:00:48.654Z,-2.87
2023-04-05T00:03:18.912Z,-2.90
2023-04-05T00:05:50.313Z,-2.93
2023-04-05T00:08:28.611Z,-2.94
2023-04-05T00:10:58.744Z,-2.96
2023-04-05T00:13:28.919Z,-2.99
2023-04-05T00:16:01.446Z,-3.00
2023-04-05T00:18:34.378Z,-3.04
2023-04-05T00:21:05.345Z,-3.00
2023-04-05T00:23:39.938Z,-2.94
2023-04-05T00:26:09.942Z,-2.92
2023-04-05T00:28:38.356Z,-3.01
2023-04-05T00:31:10.582Z,-3.07
2023-04-05T00:33:41.171Z,-3.12
2023-04-05T00:36:14.783Z,-3.16
2023-04-05T00:38:48.152Z,-3.20
2023-04-05T00:41:18.509Z,-3.22
2023-04-05T00:43:49.667Z,-3.25
2023-04-05T00:46:20.456Z,-3.28
2023-04-05T00:48:50.850Z,-3.30
2023-04-05T00:51:21.420Z,-3.34
2023-04-05T00:53:53.403Z,-3.35
2023-04-05T00:56:24.583Z,-3.36
2023-04-05T00:58:54.807Z,-3.37
2023-04-05T01:01:28.204Z,-3.39
2023-04-05T01:04:03.904Z,-3.41
2023-04-05T01:07:19.948Z,-3.46
2023-04-05T01:10:05.643Z,-3.49
2023-04-05T01:12:38.860Z,-3.51
2023-04-05T01:15:11.184Z,-3.53
2023-04-05T01:17:42.295Z,-3.56
2023-04-05T01:20:15.297Z,-3.57
2023-04-05T01:23:31.464Z,-3.58
2023-04-05T01:26:52.695Z,-3.59
2023-04-05T01:30:04.461Z,-3.59
2023-04-05T01:33:10.978Z,-3.63
2023-04-05T01:36:08.720Z,-3.65
2023-04-05T01:38:43.821Z,-3.66
2023-04-05T01:41:15.464Z,-3.71
2023-04-05T01:43:46.855Z,-3.73
2023-04-05T01:46:17.127Z,-3.71
2023-04-05T01:48:47.239Z,-3.73
2023-04-05T01:51:17.399Z,-3.72
2023-04-05T01:53:47.635Z,-3.77
2023-04-05T01:56:17.819Z,-3.81
2023-04-05T01:58:47.727Z,-3.84
2023-04-05T02:01:17.540Z,-3.88
2023-04-05T02:03:47.591Z,-3.92
2023-04-05T02:06:17.342Z,-3.95
2023-04-05T02:08:47.103Z,-3.98
2023-04-05T02:11:16.836Z,-3.98
2023-04-05T02:13:47.150Z,-3.98
2023-04-05T02:16:18.640Z,-4.00
2023-04-05T02:18:51.161Z,-4.04
2023-04-05T02:21:21.989Z,-4.03
2023-04-05T02:23:53.907Z,-4.04
2023-04-05T02:26:24.003Z,-4.07
2023-04-05T02:28:54.528Z,-4.10
2023-04-05T02:31:23.856Z,-4.12
2023-04-05T02:33:54.388Z,-4.14
2023-04-05T02:36:24.496Z,-4.12
2023-04-05T02:38:55.490Z,-4.13
2023-04-05T02:41:26.199Z,-4.06
2023-04-05T02:43:56.352Z,-3.95
2023-04-05T02:46:26.473Z,-3.86
2023-04-05T02:48:56.226Z,-3.82
2023-04-05T02:51:27.162Z,-3.80
2023-04-05T02:53:57.265Z,-3.78
2023-04-05T02:56:27.061Z,-3.69
2023-04-05T02:58:57.003Z,-3.69
2023-04-05T03:01:28.094Z,-3.66
2023-04-05T03:03:57.059Z,-3.62
2023-04-05T03:06:27.754Z,-3.59
2023-04-05T03:08:56.836Z,-3.54
2023-04-05T03:11:26.967Z,-3.50
2023-04-05T03:13:57.258Z,-3.40
2023-04-05T03:16:27.622Z,-3.33
2023-04-05T03:18:57.323Z,-3.28
2023-04-05T03:21:30.112Z,-3.21
2023-04-05T03:23:57.329Z,-3.16
2023-04-05T03:26:27.789Z,-3.17
2023-04-05T03:28:56.965Z,-3.16
2023-04-05T03:31:26.713Z,-3.15
2023-04-05T03:33:57.124Z,-3.13
2023-04-05T03:36:30.742Z,-3.02
2023-04-05T03:38:59.010Z,-2.99
2023-04-05T03:41:27.238Z,-2.92
2023-04-05T03:43:55.549Z,-2.84
2023-04-05T03:46:23.940Z,-2.83
2023-04-05T03:48:52.465Z,-2.81
2023-04-05T03:51:21.057Z,-2.81
2023-04-05T03:53:51.608Z,-2.81
2023-04-05T03:56:21.134Z,-2.82
2023-04-05T03:58:49.394Z,-2.81
2023-04-05T04:01:18.561Z,-2.81
2023-04-05T04:03:46.070Z,-2.82
2023-04-05T04:06:16.468Z,-2.81
2023-04-05T04:08:48.848Z,-2.80
2023-04-05T04:11:18.974Z,-2.75
2023-04-05T04:13:49.070Z,-2.74
2023-04-05T04:16:19.458Z,-2.71
2023-04-05T04:18:49.702Z,-2.68
2023-04-05T04:21:21.551Z,-2.67
2023-04-05T04:23:53.190Z,-2.63
2023-04-05T04:26:29.325Z,-2.53
2023-04-05T04:28:58.524Z,-2.56
2023-04-05T04:31:27.697Z,-2.56
2023-04-05T04:33:55.642Z,-2.53
2023-04-05T04:36:34.820Z,-2.50
2023-04-05T04:39:05.908Z,-2.55
2023-04-05T04:41:38.386Z,-2.50
2023-04-05T04:44:08.518Z,-2.51
2023-04-05T04:46:43.445Z,-2.52
2023-04-05T04:49:13.636Z,-2.55
2023-04-05T04:51:43.790Z,-2.51
2023-04-05T04:54:13.874Z,-2.47
2023-04-05T04:56:43.961Z,-2.43
2023-04-05T04:59:14.304Z,-2.42
2023-04-05T05:01:47.577Z,-2.40
2023-04-05T05:04:17.803Z,-2.37
2023-04-05T05:06:53.846Z,-2.33
2023-04-05T05:09:22.670Z,-2.22
2023-04-05T05:11:52.816Z,-2.19
2023-04-05T05:14:22.917Z,-2.15
2023-04-05T05:16:54.820Z,-2.12
2023-04-05T05:19:24.137Z,-2.10
2023-04-05T05:21:54.425Z,-2.00
2023-04-05T05:24:24.677Z,-1.92
2023-04-05T05:26:54.745Z,-1.81
2023-04-05T05:29:24.896Z,-1.75
2023-04-05T05:31:55.685Z,-1.72
2023-04-05T05:34:25.849Z,-1.68
2023-04-05T05:36:58.289Z,-1.52
2023-04-05T05:39:25.736Z,-1.46
2023-04-05T05:41:55.968Z,-1.34
2023-04-05T05:44:26.104Z,-1.28
2023-04-05T05:46:56.872Z,-1.15
2023-04-05T05:49:26.702Z,-1.06
2023-04-05T05:51:57.568Z,-0.97
2023-04-05T05:54:27.657Z,-0.95
2023-04-05T05:56:59.125Z,-0.93
2023-04-05T05:59:28.809Z,-0.87
2023-04-05T06:01:58.832Z,-0.85
2023-04-05T06:04:29.215Z,-0.73
2023-04-05T06:06:59.252Z,-0.66
2023-04-05T06:09:29.458Z,-0.52
2023-04-05T06:11:59.556Z,-0.51
2023-04-05T06:14:30.102Z,-0.43
2023-04-05T06:17:00.046Z,-0.32
2023-04-05T06:19:30.381Z,-0.16
2023-04-05T06:22:01.382Z,0.02
2023-04-05T06:24:32.226Z,0.12
2023-04-05T06:27:01.436Z,0.17
2023-04-05T06:29:31.585Z,0.26
2023-04-05T06:32:05.496Z,0.65
2023-04-05T06:34:34.913Z,0.85
2023-04-05T06:37:02.983Z,1.19
2023-04-05T06:39:30.682Z,1.20
2023-04-05T06:41:59.017Z,1.17
2023-04-05T06:44:27.475Z,1.17
2023-04-05T06:46:55.799Z,1.22
2023-04-05T06:49:24.282Z,1.34
2023-04-05T06:51:52.669Z,1.74
2023-04-05T06:54:23.297Z,1.83
2023-04-05T06:56:52.424Z,2.01
2023-04-05T06:59:21.554Z,2.24
2023-04-05T07:01:49.419Z,2.26
2023-04-05T07:04:17.763Z,2.42
2023-04-05T07:06:46.521Z,2.58
2023-04-05T07:09:14.539Z,2.67
2023-04-05T07:11:41.686Z,2.90
2023-04-05T07:14:11.807Z,3.09
2023-04-05T07:16:41.957Z,3.20
2023-04-05T07:19:12.109Z,3.39
2023-04-05T07:21:43.022Z,3.51
2023-04-05T07:24:13.121Z,3.72
2023-04-05T07:26:43.281Z,3.87
2023-04-05T07:29:13.658Z,3.96
2023-04-05T07:31:43.972Z,3.76
2023-04-05T07:34:14.393Z,3.70
2023-04-05T07:36:44.161Z,3.84
2023-04-05T07:39:14.266Z,3.95
2023-04-05T07:41:44.339Z,4.13
2023-04-05T07:44:14.419Z,4.14
2023-04-05T07:46:47.628Z,4.35
2023-04-05T07:49:19.204Z,4.70
2023-04-05T07:51:49.546Z,4.97
2023-04-05T07:54:19.635Z,5.31
2023-04-05T07:56:51.950Z,5.25
2023-04-05T07:59:22.321Z,5.30
2023-04-05T08:01:53.898Z,5.10
2023-04-05T08:04:27.065Z,5.38
2023-04-05T08:06:57.168Z,5.79
2023-04-05T08:09:27.302Z,6.19
2023-04-05T08:11:57.842Z,6.45
2023-04-05T08:14:27.934Z,6.70
2023-04-05T08:16:58.018Z,7.26
2023-04-05T08:19:28.299Z,7.73
2023-04-05T08:21:58.426Z,7.19
2023-04-05T08:24:28.606Z,7.08
2023-04-05T08:26:58.768Z,7.42
2023-04-05T08:29:28.955Z,7.92
2023-04-05T08:31:59.224Z,8.25
2023-04-05T08:34:29.383Z,8.28
2023-04-05T08:37:00.771Z,8.55
2023-04-05T08:39:31.240Z,9.08
2023-04-05T08:42:17.261Z,8.90
2023-04-05T08:44:53.011Z,9.44
2023-04-05T08:47:24.555Z,9.19
2023-04-05T08:49:55.817Z,9.27
2023-04-05T08:52:26.994Z,8.95
2023-04-05T08:54:57.289Z,9.16
2023-04-05T08:57:33.034Z,8.80
2023-04-05T09:00:05.391Z,7.70
2023-04-05T09:02:38.071Z,7.57
2023-04-05T09:05:11.880Z,7.71
2023-04-05T09:07:48.055Z,6.99
2023-04-05T09:10:21.396Z,7.39
2023-04-05T09:12:53.206Z,8.15
2023-04-05T09:15:27.066Z,9.07
2023-04-05T09:17:58.114Z,8.60
2023-04-05T09:20:28.459Z,8.83
2023-04-05T09:22:58.846Z,8.62
2023-04-05T09:25:39.467Z,8.89
2023-04-05T09:28:08.946Z,8.76
2023-04-05T09:30:38.982Z,9.15
2023-04-05T09:33:10.642Z,9.97
2023-04-05T09:35:41.256Z,10.38
2023-04-05T09:38:11.423Z,10.79
2023-04-05T09:41:08.706Z,10.05
2023-04-05T09:43:42.860Z,8.59
2023-04-05T09:46:39.565Z,7.91
2023-04-05T09:49:10.449Z,7.02
2023-04-05T09:51:40.693Z,7.00
2023-04-05T09:54:12.216Z,6.96
2023-04-05T09:56:57.837Z,6.84
2023-04-05T09:59:29.506Z,7.88
2023-04-05T10:01:59.640Z,8.12
2023-04-05T10:04:47.011Z,8.40
2023-04-05T10:07:20.514Z,8.35
2023-04-05T10:09:50.740Z,7.55
2023-04-05T10:12:28.856Z,7.10
2023-04-05T10:15:00.202Z,7.06
2023-04-05T10:18:07.693Z,8.15
2023-04-05T10:20:47.810Z,8.34
2023-04-05T10:23:33.814Z,7.44
2023-04-05T10:27:04.625Z,7.25
2023-04-05T10:30:09.342Z,7.33
2023-04-05T10:33:25.130Z,7.56
2023-04-05T10:36:16.708Z,8.09
2023-04-05T10:39:25.890Z,9.02
2023-04-05T10:42:15.344Z,8.63
2023-04-05T10:44:53.319Z,8.27
2023-04-05T10:47:30.399Z,8.13
2023-04-05T10:50:12.588Z,7.62
2023-04-05T10:52:47.380Z,7.54
2023-04-05T10:55:18.330Z,7.38
2023-04-05T10:57:51.249Z,7.17
2023-04-05T11:00:24.716Z,6.81
2023-04-05T11:02:57.225Z,6.64
2023-04-05T11:05:37.956Z,6.92
2023-04-05T11:08:12.743Z,6.70
2023-04-05T11:10:43.310Z,6.51
2023-04-05T11:13:12.409Z,6.36
2023-04-05T11:15:42.608Z,6.36
2023-04-05T11:18:18.188Z,6.31
2023-04-05T11:21:07.730Z,6.41
2023-04-05T11:24:09.744Z,6.20
2023-04-05T11:26:56.164Z,6.01
2023-04-05T11:29:51.985Z,5.91
2023-04-05T11:32:23.566Z,5.94
2023-04-05T11:35:14.657Z,5.92
2023-04-05T11:38:10.329Z,5.72
2023-04-05T11:40:41.160Z,5.73
2023-04-05T11:43:12.642Z,5.80
2023-04-05T11:45:43.648Z,5.55
2023-04-05T11:48:15.521Z,5.67
2023-04-05T11:50:51.359Z,5.71
2023-04-05T11:53:21.603Z,5.70
2023-04-05T11:55:52.758Z,5.67
2023-04-05T11:58:26.030Z,5.53
2023-04-05T12:01:02.017Z,5.38
2023-04-05T12:03:32.376Z,5.30
2023-04-05T12:06:07.898Z,5.37
2023-04-05T12:08:50.264Z,5.44
2023-04-05T12:11:32.098Z,5.38
2023-04-05T12:14:03.168Z,5.36
2023-04-05T12:16:33.293Z,5.40
2023-04-05T12:19:03.560Z,5.46
2023-04-05T12:21:34.087Z,5.66
2023-04-05T12:24:04.790Z,5.91
2023-04-05T12:26:38.859Z,6.01
2023-04-05T12:29:09.040Z,6.19
2023-04-05T12:31:47.168Z,6.45
2023-04-05T12:34:27.981Z,6.70
2023-04-05T12:37:03.290Z,6.76
2023-04-05T12:39:34.322Z,6.91
2023-04-05T12:42:06.736Z,6.37
2023-04-05T12:44:37.392Z,6.30
2023-04-05T12:47:11.296Z,6.31
2023-04-05T12:49:41.415Z,6.24
2023-04-05T12:52:20.419Z,6.30
2023-04-05T12:54:56.800Z,6.18
2023-04-05T12:57:33.440Z,5.96
2023-04-05T13:00:04.606Z,6.11
2023-04-05T13:02:34.824Z,6.26
2023-04-05T13:05:05.662Z,6.36
2023-04-05T13:07:33.412Z,6.70
2023-04-05T13:10:01.894Z,6.93
2023-04-05T13:12:30.534Z,6.92
2023-04-05T13:14:58.674Z,6.82
2023-04-05T13:17:27.263Z,7.26
2023-04-05T13:19:55.616Z,7.23
2023-04-05T13:22:23.995Z,7.10
2023-04-05T13:24:54.045Z,7.29
2023-04-05T13:27:23.939Z,7.33
2023-04-05T13:29:52.321Z,7.65
2023-04-05T13:32:20.809Z,8.03
2023-04-05T13:34:49.211Z,8.18
2023-04-05T13:37:17.672Z,7.92
2023-04-05T13:39:46.084Z,7.42
2023-04-05T13:42:20.655Z,7.22
2023-04-05T13:44:51.451Z,7.39
2023-04-05T13:47:21.566Z,7.33
2023-04-05T13:49:51.701Z,7.17
2023-04-05T13:52:21.930Z,7.61
2023-04-05T13:55:03.475Z,8.44
2023-04-05T13:57:34.043Z,9.15
2023-04-05T14:00:02.775Z,9.51
2023-04-05T14:02:31.079Z,9.97
2023-04-05T14:04:59.323Z,10.43
2023-04-05T14:07:29.071Z,9.50
2023-04-05T14:09:59.211Z,10.34
2023-04-05T14:12:27.815Z,10.14
2023-04-05T14:14:56.073Z,9.47
2023-04-05T14:17:24.683Z,9.19
2023-04-05T14:19:52.944Z,9.20
2023-04-05T14:22:21.886Z,9.00
2023-04-05T14:24:49.786Z,8.92
2023-04-05T14:27:18.260Z,8.61
2023-04-05T14:29:46.634Z,8.21
2023-04-05T14:32:15.085Z,7.85
2023-04-05T14:34:43.469Z,7.78
2023-04-05T14:37:11.969Z,7.65
2023-04-05T14:39:40.293Z,7.43
2023-04-05T14:42:13.888Z,7.50
2023-04-05T14:44:44.244Z,7.42
2023-04-05T14:47:14.421Z,7.31
2023-04-05T14:49:44.627Z,7.54
2023-04-05T14:52:15.076Z,8.13
2023-04-05T14:54:45.523Z,9.05
2023-04-05T14:57:16.305Z,10.14
2023-04-05T14:59:46.494Z,10.96
2023-04-05T15:02:16.833Z,11.78
2023-04-05T15:04:47.116Z,12.11
2023-04-05T15:07:17.246Z,12.13
2023-04-05T15:09:48.753Z,12.35
2023-04-05T15:12:19.508Z,12.42
2023-04-05T15:14:51.026Z,12.33
2023-04-05T15:17:22.223Z,12.50
2023-04-05T15:19:52.627Z,13.32
2023-04-05T15:22:23.771Z,13.31
2023-04-05T15:24:56.193Z,13.60
2023-04-05T15:27:26.408Z,13.84
2023-04-05T15:29:56.579Z,13.69
2023-04-05T15:37:00.533Z,11.75
2023-04-05T15:39:30.813Z,11.90
2023-04-05T15:42:03.500Z,12.55
2023-04-05T15:44:33.811Z,12.43
2023-04-05T15:47:04.194Z,11.60
2023-04-05T15:49:34.348Z,10.48
2023-04-05T15:52:04.737Z,9.35
2023-04-05T15:54:34.862Z,9.05
2023-04-05T15:57:05.243Z,8.83
2023-04-05T15:59:35.494Z,8.63
2023-04-05T16:02:06.273Z,8.06
2023-04-05T16:04:36.594Z,7.70
2023-04-05T16:07:07.968Z,7.56
2023-04-05T16:09:38.167Z,7.16
2023-04-05T16:12:14.301Z,7.00
2023-04-05T16:19:18.241Z,7.05
2023-04-05T16:21:48.542Z,7.02
2023-04-05T16:24:20.010Z,6.94
2023-04-05T16:26:50.289Z,6.95
2023-04-05T16:29:20.809Z,7.37
2023-04-05T16:31:51.346Z,7.28
2023-04-05T16:34:22.080Z,7.21
2023-04-05T16:36:52.860Z,7.06
2023-04-05T16:39:23.213Z,7.26
2023-04-05T16:41:54.453Z,7.15
2023-04-05T16:44:24.683Z,7.01
2023-04-05T16:46:54.851Z,6.86
2023-04-05T16:49:25.036Z,6.75
2023-04-05T16:51:55.407Z,6.62
2023-04-05T16:54:25.927Z,6.34
2023-04-05T16:56:56.611Z,6.16
2023-04-05T16:59:26.828Z,5.99
2023-04-05T17:01:57.056Z,5.85
2023-04-05T17:04:27.537Z,5.71
2023-04-05T17:06:58.282Z,5.61
2023-04-05T17:09:29.436Z,5.54
2023-04-05T17:11:59.618Z,5.42
2023-04-05T17:14:31.268Z,5.36
2023-04-05T17:17:01.496Z,5.34
2023-04-05T17:19:32.921Z,5.25
2023-04-05T17:22:03.232Z,5.22
2023-04-05T17:24:38.133Z,5.12
2023-04-05T17:27:08.400Z,5.02
2023-04-05T17:29:39.516Z,4.93
2023-04-05T17:32:07.607Z,4.81
2023-04-05T17:34:35.517Z,4.69
2023-04-05T17:37:03.939Z,4.57
2023-04-05T17:39:32.386Z,4.45
2023-04-05T17:42:00.885Z,4.33
2023-04-05T17:44:30.571Z,4.20
2023-04-05T17:47:08.435Z,4.08
2023-04-05T17:49:39.715Z,3.96
2023-04-05T17:52:09.997Z,3.88
2023-04-05T17:54:40.285Z,3.77
2023-04-05T17:57:15.769Z,3.65
2023-04-05T17:59:46.257Z,3.52
2023-04-05T18:02:16.716Z,3.40
2023-04-05T18:04:47.130Z,3.31
2023-04-05T18:07:17.314Z,3.22
2023-04-05T18:09:45.945Z,3.16
2023-04-05T18:12:18.528Z,3.15
2023-04-05T18:14:48.867Z,3.12
2023-04-05T18:17:20.274Z,3.06
2023-04-05T18:19:50.920Z,3.03
2023-04-05T18:22:21.297Z,2.99
2023-04-05T18:24:51.488Z,2.96
2023-04-05T18:27:22.106Z,2.95
2023-04-05T18:29:50.086Z,2.95
2023-04-05T18:32:18.677Z,2.95
2023-04-05T18:34:47.010Z,2.95
2023-04-05T18:37:15.355Z,2.94
2023-04-05T18:39:43.786Z,2.96
2023-04-05T18:42:17.938Z,2.96
2023-04-05T18:44:48.146Z,2.96
2023-04-05T18:47:18.354Z,2.94
2023-04-05T18:49:48.589Z,3.00
2023-04-05T18:52:23.554Z,2.98
2023-04-05T18:54:58.454Z,2.99
2023-04-05T18:57:29.563Z,2.98
2023-04-05T19:00:01.844Z,2.98
2023-04-05T19:02:32.227Z,3.00
2023-04-05T19:05:02.490Z,3.02
2023-04-05T19:07:32.669Z,3.10
2023-04-05T19:10:02.882Z,3.20
2023-04-05T19:12:33.105Z,3.30
2023-04-05T19:15:03.874Z,3.25
2023-04-05T19:17:34.158Z,3.18
2023-04-05T19:20:05.591Z,3.16
2023-04-05T19:22:35.805Z,3.13
2023-04-05T19:25:06.645Z,3.10
2023-04-05T19:27:37.738Z,3.08
2023-04-05T19:30:09.354Z,3.06
2023-04-05T19:32:39.539Z,3.04
2023-04-05T19:35:10.461Z,3.02
2023-04-05T19:37:40.585Z,3.06
2023-04-05T19:40:12.413Z,3.10
2023-04-05T19:42:47.778Z,3.03
2023-04-05T19:45:32.603Z,2.99
2023-04-05T19:48:30.570Z,2.99
2023-04-05T19:51:02.093Z,2.96
2023-04-05T19:53:50.238Z,2.96
2023-04-05T19:56:31.258Z,2.99
2023-04-05T19:59:13.367Z,3.05
2023-04-05T20:01:47.537Z,2.97
2023-04-05T20:04:23.360Z,2.90
2023-04-05T20:06:56.117Z,2.92
2023-04-05T20:09:29.923Z,2.87
2023-04-05T20:12:04.802Z,2.98
2023-04-05T20:14:53.321Z,2.87
2023-04-05T20:17:27.922Z,2.81
2023-04-05T20:20:01.196Z,2.84
2023-04-05T20:22:33.035Z,2.81
2023-04-05T20:25:46.978Z,2.75
2023-04-05T20:28:34.741Z,3.14
2023-04-05T20:31:35.202Z,3.04
2023-04-05T20:34:26.566Z,2.89
2023-04-05T20:37:07.471Z,2.81
2023-04-05T20:39:37.832Z,2.84
2023-04-05T20:42:13.259Z,2.80
2023-04-05T20:44:44.091Z,2.72
2023-04-05T20:47:14.460Z,2.63
2023-04-05T20:49:47.654Z,2.58
2023-04-05T20:52:17.944Z,2.55
2023-04-05T20:54:49.997Z,2.50
2023-04-05T20:57:20.191Z,2.44
2023-04-05T20:59:50.624Z,2.42
2023-04-05T21:02:18.896Z,2.39
2023-04-05T21:04:49.533Z,2.35
2023-04-05T21:07:19.237Z,2.29
2023-04-05T21:09:47.940Z,2.25
2023-04-05T21:12:18.075Z,2.21
2023-04-05T21:14:48.239Z,2.17
2023-04-05T21:17:18.417Z,2.12
2023-04-05T21:19:48.692Z,2.08
2023-04-05T21:22:19.014Z,2.02
2023-04-05T21:24:49.171Z,1.98
2023-04-05T21:27:19.347Z,1.95
2023-04-05T21:29:49.527Z,1.90
2023-04-05T21:32:20.032Z,1.88
2023-04-05T21:34:50.283Z,1.86
2023-04-05T21:37:20.637Z,1.85
2023-04-05T21:39:50.950Z,1.82
2023-04-05T21:42:22.061Z,1.80
2023-04-05T21:44:52.282Z,1.79
2023-04-05T21:47:20.707Z,1.77
2023-04-05T21:49:49.619Z,1.76
2023-04-05T21:52:17.456Z,1.74
2023-04-05T21:54:46.330Z,1.70
2023-04-05T21:57:14.489Z,1.67
2023-04-05T21:59:42.810Z,1.64
2023-04-05T22:02:12.393Z,1.63
2023-04-05T22:04:42.565Z,1.62
2023-04-05T22:07:11.088Z,1.58
2023-04-05T22:09:39.569Z,1.54
2023-04-05T22:12:12.480Z,1.50
2023-04-05T22:14:43.116Z,1.46
2023-04-05T22:17:13.345Z,1.41
2023-04-05T22:19:44.024Z,1.37
2023-04-05T22:22:15.225Z,1.33
2023-04-05T22:24:45.541Z,1.30
2023-04-05T22:27:15.933Z,1.27
2023-04-05T22:29:48.511Z,1.25
2023-04-05T22:32:18.660Z,1.26
2023-04-05T22:34:49.090Z,1.25
2023-04-05T22:37:19.328Z,1.22
2023-04-05T22:39:49.496Z,1.21
2023-04-05T22:42:19.689Z,1.19
2023-04-05T22:44:50.276Z,1.18
2023-04-05T22:47:21.431Z,1.16
2023-04-05T22:49:52.075Z,1.16
2023-04-05T22:52:22.267Z,1.17
2023-04-05T22:54:52.529Z,1.15
2023-04-05T22:57:22.791Z,1.15
2023-04-05T22:59:53.066Z,1.14
2023-04-05T23:02:24.766Z,1.18
2023-04-05T23:04:56.138Z,1.15
2023-04-05T23:07:26.539Z,1.14
2023-04-05T23:09:56.768Z,1.09
2023-04-05T23:12:27.484Z,1.05
2023-04-05T23:14:58.496Z,0.99
2023-04-05T23:17:28.777Z,0.94
2023-04-05T23:19:59.051Z,0.89
2023-04-05T23:22:29.217Z,0.81
2023-04-05T23:25:01.601Z,0.73
2023-04-05T23:27:32.682Z,0.65
2023-04-05T23:30:02.983Z,0.61
2023-04-05T23:32:32.324Z,0.57
2023-04-05T23:35:02.814Z,0.53
2023-04-05T23:37:33.073Z,0.50
2023-04-05T23:40:05.101Z,0.44
2023-04-05T23:42:35.240Z,0.40
2023-04-05T23:45:09.029Z,0.35
2023-04-05T23:47:40.035Z,0.30
2023-04-05T23:50:10.620Z,0.24
2023-04-05T23:52:40.816Z,0.18
2023-04-05T23:55:11.275Z,0.13
2023-04-05T23:57:41.445Z,0.08
